Time;durP1;ratioP1;P1;durP2;ratioP2;P2;SDS_P1;SDS_P2;PMS_P1;PMS_P2;Temp;Humidity;BMP_temperature;BMP_pressure;BME280_temperature;BME280_humidity;BME280_pressure;Samples;Min_cycle;Max_cycle;Signal;HPM_P1;HPM_P2
2023/03/17 00:00:03;;;;;;;;;16.00;8.33;;;;;;;;6336434;22;45177;-82
2023/03/17 00:02:28;;;;;;;;;11.25;8.00;;;;;;;;6335688;22;45196;-84
2023/03/17 00:04:53;;;;;;;;;10.67;8.67;;;;;;;;6335482;22;47275;-82
2023/03/17 00:07:18;;;;;;;;;8.00;8.00;;;;;;;;6334105;22;45203;-82
2023/03/17 00:09:43;;;;;;;;;8.67;7.33;;;;;;;;6334293;22;45282;-83
2023/03/17 00:12:09;;;;;;;;;8.33;7.00;;;;;;;;6335345;22;45386;-82
2023/03/17 00:14:35;;;;;;;;;16.50;8.00;;;;;;;;6336027;22;45516;-82
2023/03/17 00:17:00;;;;;;;;;7.00;7.00;;;;;;;;6335761;22;45250;-82
2023/03/17 00:19:30;;;;;;;;;10.25;8.00;;;;;;;;6335923;22;45292;-82
2023/03/17 00:21:56;;;;;;;;;9.75;8.00;;;;;;;;6335842;22;45149;-82
2023/03/17 00:24:21;;;;;;;;;5.00;4.50;;;;;;;;6334139;22;46408;-82
2023/03/17 00:26:47;;;;;;;;;9.00;7.00;;;;;;;;6335702;22;45143;-82
2023/03/17 00:29:12;;;;;;;;;7.25;6.00;;;;;;;;6336397;22;45208;-82
2023/03/17 00:31:38;;;;;;;;;8.00;6.33;;;;;;;;6334144;22;45427;-82
2023/03/17 00:34:04;;;;;;;;;8.75;6.25;;;;;;;;6333881;22;47040;-82
2023/03/17 00:36:30;;;;;;;;;8.75;4.00;;;;;;;;6335619;22;45797;-82
2023/03/17 00:38:56;;;;;;;;;7.25;7.25;;;;;;;;6336385;22;45310;-82
2023/03/17 00:41:22;;;;;;;;;8.00;6.00;;;;;;;;6335887;22;45297;-82
2023/03/17 00:43:48;;;;;;;;;8.00;6.75;;;;;;;;6333871;22;46278;-82
2023/03/17 00:46:15;;;;;;;;;8.00;7.00;;;;;;;;6335699;22;45512;-82
2023/03/17 00:48:42;;;;;;;;;7.25;5.50;;;;;;;;6336078;22;45240;-82
2023/03/17 00:51:07;;;;;;;;;8.25;6.00;;;;;;;;6335602;22;45213;-82
2023/03/17 00:53:33;;;;;;;;;7.75;3.50;;;;;;;;6335510;22;45319;-81
2023/03/17 00:55:58;;;;;;;;;6.00;6.00;;;;;;;;6335092;22;45204;-82
2023/03/17 00:58:25;;;;;;;;;12.00;8.00;;;;;;;;6334125;22;45286;-82
2023/03/17 01:00:51;;;;;;;;;5.50;4.50;;;;;;;;6335966;22;45515;-82
2023/03/17 01:03:16;;;;;;;;;9.67;6.00;;;;;;;;6337169;22;45351;-81
2023/03/17 01:05:41;;;;;;;;;7.25;5.50;;;;;;;;6335201;22;45754;-82
2023/03/17 01:08:08;;;;;;;;;4.00;4.00;;;;;;;;6337451;22;45299;-82
2023/03/17 01:10:33;;;;;;;;;8.50;6.00;;;;;;;;6336327;22;45323;-82
2023/03/17 01:12:58;;;;;;;;;11.00;6.00;;;;;;;;6335014;22;48117;-82
2023/03/17 01:15:24;;;;;;;;;7.00;6.25;;;;;;;;6336767;22;45282;-82
2023/03/17 01:17:50;;;;;;;;;8.50;7.00;;;;;;;;6336925;22;45258;-82
2023/03/17 01:20:23;;;;;;;;;6.75;5.50;;;;;;;;6337013;22;45189;-82
2023/03/17 01:22:49;;;;;;;;;7.00;6.00;;;;;;;;6334911;22;47843;-82
2023/03/17 01:25:15;;;;;;;;;8.75;7.00;;;;;;;;6336086;22;45250;-82
2023/03/17 01:27:40;;;;;;;;;11.00;6.75;;;;;;;;6335057;22;45308;-82
2023/03/17 01:30:08;;;;;;;;;6.50;6.00;;;;;;;;6335057;22;45443;-83
2023/03/17 01:32:33;;;;;;;;;8.75;6.75;;;;;;;;6336681;22;46931;-82
2023/03/17 01:34:58;;;;;;;;;5.33;4.00;;;;;;;;6336987;22;45308;-82
2023/03/17 01:37:24;;;;;;;;;5.33;3.67;;;;;;;;6336954;22;45343;-82
2023/03/17 01:39:50;;;;;;;;;7.00;7.00;;;;;;;;6336384;22;45324;-82
2023/03/17 01:42:16;;;;;;;;;6.00;6.00;;;;;;;;6336492;22;46048;-82
2023/03/17 01:45:02;;;;;;;;;7.75;3.50;;;;;;;;6337107;22;45240;-82
2023/03/17 01:47:30;;;;;;;;;6.00;4.00;;;;;;;;6336603;22;45368;-82
2023/03/17 01:49:57;;;;;;;;;9.75;3.00;;;;;;;;6335042;22;45265;-82
2023/03/17 01:52:23;;;;;;;;;5.50;4.00;;;;;;;;6335884;22;46368;-82
2023/03/17 01:55:17;;;;;;;;;6.00;6.00;;;;;;;;6336363;22;45229;-82
2023/03/17 01:57:55;;;;;;;;;7.00;6.75;;;;;;;;6309586;22;45113;-83
2023/03/17 02:00:23;;;;;;;;;6.00;6.00;;;;;;;;6337076;22;45367;-83
2023/03/17 02:02:54;;;;;;;;;6.50;4.00;;;;;;;;6336820;22;45552;-82
2023/03/17 02:05:21;;;;;;;;;7.00;7.00;;;;;;;;6336592;22;45169;-82
2023/03/17 02:07:46;;;;;;;;;6.00;6.00;;;;;;;;6336136;22;45247;-82
2023/03/17 02:10:13;;;;;;;;;6.00;6.00;;;;;;;;6336834;22;45236;-82
2023/03/17 02:12:40;;;;;;;;;4.50;4.50;;;;;;;;6336514;22;45481;-83
2023/03/17 02:15:06;;;;;;;;;9.25;8.00;;;;;;;;6336423;22;45725;-82
2023/03/17 02:17:32;;;;;;;;;6.00;6.00;;;;;;;;6334813;22;45293;-82
2023/03/17 02:20:12;;;;;;;;;8.00;6.75;;;;;;;;6336847;22;45345;-82
2023/03/17 02:22:37;;;;;;;;;8.25;6.00;;;;;;;;6335865;22;46431;-82
2023/03/17 02:25:03;;;;;;;;;8.25;7.00;;;;;;;;6334628;22;45232;-82
2023/03/17 02:27:34;;;;;;;;;6.25;6.00;;;;;;;;6336764;22;45320;-82
2023/03/17 02:29:59;;;;;;;;;7.00;7.00;;;;;;;;6336356;22;45474;-82
2023/03/17 02:32:25;;;;;;;;;14.25;8.50;;;;;;;;6336152;22;47073;-82
2023/03/17 02:34:50;;;;;;;;;10.75;8.00;;;;;;;;6336349;22;45320;-82
2023/03/17 02:37:17;;;;;;;;;10.00;8.25;;;;;;;;6335876;22;45321;-82
2023/03/17 02:39:42;;;;;;;;;17.00;11.00;;;;;;;;6336317;22;45297;-82
2023/03/17 02:42:08;;;;;;;;;15.50;10.25;;;;;;;;6336616;22;45445;-83
2023/03/17 02:44:33;;;;;;;;;21.00;16.75;;;;;;;;6336672;22;45447;-82
2023/03/17 02:46:59;;;;;;;;;32.50;23.75;;;;;;;;6336373;22;45267;-81
2023/03/17 02:49:26;;;;;;;;;31.00;20.75;;;;;;;;6336055;22;45390;-82
2023/03/17 02:51:51;;;;;;;;;14.50;14.25;;;;;;;;6333792;22;47848;-82
2023/03/17 02:54:16;;;;;;;;;10.75;7.75;;;;;;;;6336108;22;45353;-82
2023/03/17 02:56:42;;;;;;;;;18.25;13.50;;;;;;;;6336862;22;45291;-82
2023/03/17 02:59:07;;;;;;;;;17.00;15.00;;;;;;;;6337118;22;45216;-82
2023/03/17 03:01:33;;;;;;;;;13.75;10.50;;;;;;;;6335997;22;47153;-82
2023/03/17 03:03:58;;;;;;;;;6.75;6.75;;;;;;;;6336755;22;45279;-82
2023/03/17 03:06:23;;;;;;;;;11.33;8.00;;;;;;;;6336500;22;45107;-82
2023/03/17 03:08:49;;;;;;;;;10.33;7.00;;;;;;;;6336160;22;45217;-82
2023/03/17 03:11:14;;;;;;;;;11.00;7.25;;;;;;;;6334272;22;47303;-82
2023/03/17 03:13:40;;;;;;;;;10.33;8.00;;;;;;;;6336544;22;45369;-82
2023/03/17 03:16:05;;;;;;;;;11.00;7.50;;;;;;;;6336599;22;45182;-82
2023/03/17 03:18:31;;;;;;;;;9.25;6.50;;;;;;;;6336087;22;45235;-82
2023/03/17 03:20:56;;;;;;;;;10.00;7.75;;;;;;;;6335640;22;46099;-82
2023/03/17 03:23:22;;;;;;;;;7.67;6.00;;;;;;;;6336439;22;45261;-82
2023/03/17 03:25:47;;;;;;;;;7.75;6.00;;;;;;;;6336373;22;45292;-82
2023/03/17 03:28:12;;;;;;;;;9.00;8.00;;;;;;;;6336704;22;45390;-83
2023/03/17 03:30:38;;;;;;;;;11.25;10.75;;;;;;;;6336277;22;45307;-82
2023/03/17 03:33:04;;;;;;;;;11.67;8.00;;;;;;;;6334570;22;45276;-82
2023/03/17 03:35:29;;;;;;;;;12.75;8.75;;;;;;;;6336086;22;45276;-83
2023/03/17 03:37:55;;;;;;;;;11.00;8.00;;;;;;;;6336580;22;45343;-82
2023/03/17 03:40:21;;;;;;;;;11.75;7.00;;;;;;;;6336235;22;45383;-82
2023/03/17 03:42:46;;;;;;;;;11.50;7.00;;;;;;;;6336071;22;45176;-82
2023/03/17 03:45:11;;;;;;;;;16.33;11.00;;;;;;;;6336658;22;45163;-82
2023/03/17 03:47:37;;;;;;;;;11.33;9.00;;;;;;;;6336295;22;45275;-82
2023/03/17 03:50:02;;;;;;;;;7.00;7.00;;;;;;;;6333599;22;47999;-82
2023/03/17 03:52:27;;;;;;;;;12.50;7.75;;;;;;;;6336328;22;45581;-82
2023/03/17 03:54:52;;;;;;;;;12.00;8.67;;;;;;;;6336168;22;45422;-82
2023/03/17 03:57:17;;;;;;;;;10.33;6.67;;;;;;;;6336521;22;45602;-82
2023/03/17 03:59:43;;;;;;;;;11.00;9.00;;;;;;;;6336302;22;45375;-82
2023/03/17 04:02:08;;;;;;;;;12.00;10.00;;;;;;;;6336350;22;45218;-82
2023/03/17 04:04:33;;;;;;;;;8.00;8.00;;;;;;;;6335692;22;45260;-82
2023/03/17 04:06:58;;;;;;;;;12.67;9.00;;;;;;;;6334488;22;45325;-82
2023/03/17 04:09:24;;;;;;;;;7.75;6.00;;;;;;;;6335442;22;46128;-82
2023/03/17 04:11:49;;;;;;;;;8.67;7.67;;;;;;;;6336264;22;45280;-82
2023/03/17 04:14:14;;;;;;;;;8.00;7.00;;;;;;;;6335989;22;45351;-82
2023/03/17 04:16:39;;;;;;;;;9.00;7.00;;;;;;;;6336271;22;45313;-83
2023/03/17 04:19:05;;;;;;;;;12.50;8.00;;;;;;;;6333637;22;47189;-82
2023/03/17 04:21:30;;;;;;;;;10.25;6.25;;;;;;;;6335933;22;45320;-82
2023/03/17 04:23:55;;;;;;;;;4.00;3.00;;;;;;;;6336428;22;45328;-82
2023/03/17 04:26:22;;;;;;;;;7.67;7.00;;;;;;;;6335963;22;45384;-82
2023/03/17 04:28:48;;;;;;;;;12.50;8.25;;;;;;;;6336143;22;46093;-82
2023/03/17 04:31:13;;;;;;;;;9.50;7.50;;;;;;;;6335693;22;45287;-82
2023/03/17 04:33:39;;;;;;;;;11.67;8.67;;;;;;;;6333863;22;45319;-82
2023/03/17 04:36:06;;;;;;;;;8.00;6.75;;;;;;;;6335147;22;45281;-82
2023/03/17 04:38:31;;;;;;;;;7.50;6.50;;;;;;;;6335541;22;47176;-81
2023/03/17 04:40:56;;;;;;;;;12.00;8.00;;;;;;;;6336190;22;45224;-82
2023/03/17 04:43:22;;;;;;;;;7.67;7.67;;;;;;;;6336127;22;45171;-82
2023/03/17 04:45:47;;;;;;;;;8.33;7.00;;;;;;;;6336206;22;45147;-82
2023/03/17 04:48:12;;;;;;;;;7.00;6.00;;;;;;;;6335308;22;45403;-82
2023/03/17 04:50:37;;;;;;;;;8.00;7.00;;;;;;;;6335857;22;45233;-82
2023/03/17 04:53:03;;;;;;;;;7.00;7.00;;;;;;;;6333874;22;45430;-82
2023/03/17 04:55:28;;;;;;;;;7.33;7.33;;;;;;;;6336001;22;45453;-82
2023/03/17 04:57:53;;;;;;;;;8.67;7.67;;;;;;;;6333819;22;46920;-82
2023/03/17 05:00:20;;;;;;;;;6.67;6.00;;;;;;;;6333828;22;45712;-82
2023/03/17 05:02:45;;;;;;;;;13.75;7.50;;;;;;;;6335199;22;45285;-83
2023/03/17 05:05:11;;;;;;;;;7.00;6.50;;;;;;;;6334065;22;45361;-82
2023/03/17 05:07:37;;;;;;;;;8.00;7.50;;;;;;;;6335244;22;46335;-82
2023/03/17 05:10:03;;;;;;;;;8.00;7.00;;;;;;;;6335662;22;45276;-82
2023/03/17 05:12:28;;;;;;;;;11.00;8.00;;;;;;;;6335912;22;45285;-82
2023/03/17 05:14:53;;;;;;;;;6.33;5.67;;;;;;;;6335846;22;45364;-83
2023/03/17 05:17:18;;;;;;;;;9.67;7.00;;;;;;;;6334646;22;45359;-83
2023/03/17 05:19:43;;;;;;;;;7.00;7.00;;;;;;;;6335338;22;45296;-82
2023/03/17 05:22:10;;;;;;;;;8.67;7.00;;;;;;;;6335399;22;45256;-83
2023/03/17 05:24:35;;;;;;;;;6.50;6.50;;;;;;;;6335345;22;45280;-83
2023/03/17 05:27:00;;;;;;;;;11.00;8.00;;;;;;;;6335034;22;47130;-82
2023/03/17 05:29:25;;;;;;;;;6.00;6.00;;;;;;;;6335463;22;45244;-83
2023/03/17 05:31:51;;;;;;;;;5.00;4.33;;;;;;;;6334968;22;45180;-83
2023/03/17 05:34:16;;;;;;;;;7.00;6.25;;;;;;;;6335632;22;45205;-83
2023/03/17 05:36:42;;;;;;;;;6.67;4.00;;;;;;;;6335520;22;45513;-82
2023/03/17 05:39:07;;;;;;;;;7.00;4.50;;;;;;;;6335061;22;45258;-83
2023/03/17 05:41:33;;;;;;;;;8.50;3.25;;;;;;;;6333565;22;45323;-83
2023/03/17 05:43:58;;;;;;;;;7.00;6.00;;;;;;;;6335737;22;45652;-82
2023/03/17 05:46:23;;;;;;;;;7.67;4.67;;;;;;;;6335064;22;45500;-83
2023/03/17 05:48:48;;;;;;;;;6.67;3.67;;;;;;;;6336382;22;45351;-83
2023/03/17 05:51:14;;;;;;;;;3.00;3.00;;;;;;;;6336601;22;45421;-83
2023/03/17 05:53:40;;;;;;;;;8.00;3.00;;;;;;;;6336432;22;45303;-83
2023/03/17 05:56:06;;;;;;;;;4.00;4.00;;;;;;;;6336510;22;46953;-83
2023/03/17 05:58:31;;;;;;;;;5.50;5.50;;;;;;;;6334453;22;45734;-82
2023/03/17 06:00:56;;;;;;;;;8.00;6.00;;;;;;;;6337151;22;45253;-82
2023/03/17 06:03:21;;;;;;;;;7.33;4.00;;;;;;;;6337043;22;45403;-82
2023/03/17 06:05:47;;;;;;;;;3.00;3.00;;;;;;;;6336919;22;45358;-82
2023/03/17 06:08:12;;;;;;;;;6.00;4.00;;;;;;;;6336971;22;45269;-83
2023/03/17 06:10:38;;;;;;;;;8.00;3.75;;;;;;;;6336593;22;45345;-83
2023/03/17 06:13:03;;;;;;;;;4.00;4.00;;;;;;;;6334422;22;45435;-82
2023/03/17 06:15:28;;;;;;;;;7.00;5.50;;;;;;;;6336219;22;46227;-83
2023/03/17 06:17:54;;;;;;;;;8.00;4.50;;;;;;;;6334839;22;45318;-82
2023/03/17 06:20:19;;;;;;;;;6.67;5.33;;;;;;;;6337036;22;45273;-83
2023/03/17 06:22:45;;;;;;;;;6.25;4.00;;;;;;;;6336736;22;45434;-82
2023/03/17 06:25:12;;;;;;;;;6.00;6.00;;;;;;;;6336243;22;46363;-82
2023/03/17 06:27:38;;;;;;;;;6.50;2.25;;;;;;;;6335846;22;45257;-82
2023/03/17 06:30:05;;;;;;;;;5.00;5.00;;;;;;;;6334884;22;45297;-82
2023/03/17 06:32:30;;;;;;;;;19.00;6.00;;;;;;;;6336565;22;45307;-83
2023/03/17 06:34:55;;;;;;;;;9.75;6.25;;;;;;;;6336991;22;46660;-88
2023/03/17 06:37:20;;;;;;;;;7.67;6.33;;;;;;;;6334929;22;45281;-83
2023/03/17 06:39:46;;;;;;;;;6.00;4.00;;;;;;;;6336744;22;45239;-84
2023/03/17 06:42:12;;;;;;;;;11.50;8.00;;;;;;;;6335872;22;45462;-83
2023/03/17 06:44:37;;;;;;;;;8.75;7.75;;;;;;;;6336869;22;46259;-84
2023/03/17 06:47:03;;;;;;;;;7.00;7.00;;;;;;;;6336832;22;45393;-84
2023/03/17 06:49:29;;;;;;;;;5.00;5.00;;;;;;;;6336287;22;45199;-85
2023/03/17 06:51:54;;;;;;;;;9.00;4.50;;;;;;;;6334387;22;45317;-85
2023/03/17 06:54:22;;;;;;;;;2.50;2.00;;;;;;;;6336257;22;46098;-84
2023/03/17 06:56:47;;;;;;;;;7.00;4.50;;;;;;;;6335852;22;45264;-84
2023/03/17 06:59:13;;;;;;;;;6.25;6.00;;;;;;;;6337051;22;45260;-85
2023/03/17 07:01:38;;;;;;;;;7.67;4.00;;;;;;;;6337120;22;45273;-83
2023/03/17 07:04:04;;;;;;;;;6.00;4.00;;;;;;;;6336451;22;46373;-84
2023/03/17 07:06:29;;;;;;;;;7.00;7.00;;;;;;;;6334245;22;45314;-85
2023/03/17 07:08:55;;;;;;;;;6.25;6.25;;;;;;;;6336266;22;45356;-85
2023/03/17 07:11:22;;;;;;;;;6.50;6.25;;;;;;;;6336244;22;45268;-85
2023/03/17 07:13:47;;;;;;;;;4.00;4.00;;;;;;;;6336571;22;45447;-84
2023/03/17 07:16:14;;;;;;;;;8.33;6.00;;;;;;;;6335606;22;45547;-83
2023/03/17 07:18:39;;;;;;;;;7.00;6.50;;;;;;;;6335682;22;45462;-84
2023/03/17 07:21:04;;;;;;;;;7.00;4.00;;;;;;;;6336235;22;45330;-84
2023/03/17 07:23:29;;;;;;;;;5.00;4.00;;;;;;;;6334205;22;46611;-84
2023/03/17 07:25:56;;;;;;;;;6.00;3.00;;;;;;;;6335883;22;45276;-83
2023/03/17 07:28:21;;;;;;;;;5.25;4.50;;;;;;;;6336186;22;45276;-84
2023/03/17 07:30:48;;;;;;;;;7.25;4.00;;;;;;;;6336080;22;45466;-83
2023/03/17 07:33:13;;;;;;;;;10.00;7.00;;;;;;;;6336457;22;45303;-85
2023/03/17 07:35:38;;;;;;;;;6.75;4.00;;;;;;;;6336960;22;45143;-86
2023/03/17 07:38:04;;;;;;;;;5.00;4.67;;;;;;;;6335785;22;45258;-87
2023/03/17 07:40:29;;;;;;;;;6.75;4.00;;;;;;;;6337356;22;45225;-87
2023/03/17 07:42:55;;;;;;;;;4.50;4.50;;;;;;;;6336628;22;45249;-87
2023/03/17 07:45:20;;;;;;;;;4.00;4.00;;;;;;;;6336404;22;45356;-89
2023/03/17 07:47:45;;;;;;;;;6.67;2.00;;;;;;;;6336850;22;45213;-86
2023/03/17 07:50:10;;;;;;;;;0.00;0.00;;;;;;;;6336150;22;45341;-90
2023/03/17 07:52:38;;;;;;;;;9.50;4.00;;;;;;;;6337070;22;46185;-85
2023/03/17 07:55:07;;;;;;;;;7.50;4.75;;;;;;;;6338219;22;45367;-90
2023/03/17 07:57:32;;;;;;;;;6.25;3.00;;;;;;;;6349810;22;45378;-90
2023/03/17 07:59:58;;;;;;;;;7.50;4.00;;;;;;;;6336728;22;45221;-87
2023/03/17 08:02:23;;;;;;;;;7.00;4.00;;;;;;;;6337248;22;46285;-87
2023/03/17 08:04:52;;;;;;;;;4.75;4.25;;;;;;;;6334852;22;45541;-86
2023/03/17 08:07:18;;;;;;;;;8.50;5.00;;;;;;;;6336454;22;45356;-85
2023/03/17 08:10:07;;;;;;;;;8.25;7.75;;;;;;;;6339776;22;45217;-96
2023/03/17 08:12:32;;;;;;;;;4.00;4.00;;;;;;;;6317292;22;45767;-86
2023/03/17 08:14:57;;;;;;;;;7.00;5.25;;;;;;;;6333695;22;45227;-85
2023/03/17 08:17:26;;;;;;;;;5.67;3.67;;;;;;;;6332528;22;45267;-85
2023/03/17 08:19:51;;;;;;;;;7.00;4.00;;;;;;;;6334046;22;45380;-84
2023/03/17 08:22:17;;;;;;;;;7.75;4.25;;;;;;;;6335528;22;45256;-83
2023/03/17 08:24:43;;;;;;;;;4.67;4.00;;;;;;;;6335005;22;45365;-84
2023/03/17 08:27:08;;;;;;;;;5.00;2.75;;;;;;;;6335162;22;45298;-83
2023/03/17 08:29:33;;;;;;;;;7.75;4.75;;;;;;;;6335340;22;45232;-83
2023/03/17 08:31:58;;;;;;;;;3.75;3.25;;;;;;;;6334020;22;47843;-86
2023/03/17 08:34:25;;;;;;;;;5.00;3.33;;;;;;;;6335348;22;45319;-86
2023/03/17 08:36:50;;;;;;;;;10.25;5.00;;;;;;;;6335451;22;45390;-85
2023/03/17 08:39:16;;;;;;;;;5.00;4.25;;;;;;;;6335094;22;46048;-85
2023/03/17 08:41:42;;;;;;;;;4.25;4.00;;;;;;;;6335511;22;45254;-84
2023/03/17 08:44:07;;;;;;;;;4.75;3.25;;;;;;;;6333695;22;45826;-84
2023/03/17 08:46:33;;;;;;;;;5.00;4.00;;;;;;;;6334914;22;45767;-87
2023/03/17 08:48:59;;;;;;;;;7.00;3.00;;;;;;;;6331253;22;45459;-85
2023/03/17 08:51:26;;;;;;;;;8.00;3.50;;;;;;;;6333023;22;45628;-86
2023/03/17 08:53:53;;;;;;;;;3.50;3.50;;;;;;;;6333020;22;45559;-86
2023/03/17 08:56:19;;;;;;;;;4.50;2.50;;;;;;;;6335492;22;45636;-85
2023/03/17 08:58:47;;;;;;;;;5.00;3.67;;;;;;;;6333669;22;45438;-85
2023/03/17 09:01:13;;;;;;;;;5.75;2.25;;;;;;;;6335323;22;46465;-86
2023/03/17 09:03:39;;;;;;;;;3.75;3.75;;;;;;;;6333324;22;45306;-85
2023/03/17 09:06:06;;;;;;;;;6.50;4.25;;;;;;;;6335652;22;45216;-86
2023/03/17 09:08:33;;;;;;;;;8.75;4.00;;;;;;;;6334763;22;45283;-84
2023/03/17 09:10:58;;;;;;;;;3.75;3.00;;;;;;;;6333991;22;46439;-86
2023/03/17 09:13:23;;;;;;;;;5.00;2.00;;;;;;;;6334741;22;45247;-85
2023/03/17 09:15:49;;;;;;;;;4.67;4.67;;;;;;;;6335017;22;45309;-86
2023/03/17 09:18:14;;;;;;;;;7.50;4.25;;;;;;;;6335024;22;45359;-86
2023/03/17 09:20:40;;;;;;;;;2.75;2.00;;;;;;;;6333340;22;47281;-84
2023/03/17 09:23:09;;;;;;;;;6.00;2.50;;;;;;;;6334355;22;45257;-85
2023/03/17 09:25:35;;;;;;;;;4.00;4.00;;;;;;;;6334782;22;45299;-86
2023/03/17 09:28:00;;;;;;;;;4.00;4.00;;;;;;;;6336701;22;45217;-86
2023/03/17 09:30:26;;;;;;;;;6.25;3.25;;;;;;;;6336219;22;45340;-85
2023/03/17 09:32:51;;;;;;;;;3.25;3.25;;;;;;;;6336900;22;45491;-85
2023/03/17 09:35:16;;;;;;;;;2.25;2.25;;;;;;;;6336351;22;45362;-86
2023/03/17 09:37:42;;;;;;;;;6.00;2.50;;;;;;;;6335813;22;45728;-85
2023/03/17 09:40:11;;;;;;;;;3.00;2.00;;;;;;;;6336872;22;46400;-86
2023/03/17 09:42:37;;;;;;;;;3.00;3.00;;;;;;;;6336074;22;45370;-86
2023/03/17 09:45:21;;;;;;;;;7.25;2.50;;;;;;;;6336791;22;45276;-85
2023/03/17 09:48:04;;;;;;;;;3.00;3.00;;;;;;;;6336293;22;45185;-84
2023/03/17 09:50:36;;;;;;;;;3.00;3.00;;;;;;;;6335869;22;45618;-87
2023/03/17 09:53:03;;;;;;;;;5.50;2.75;;;;;;;;6337215;22;45338;-85
2023/03/17 09:55:31;;;;;;;;;2.75;2.50;;;;;;;;6335668;22;45494;-84
2023/03/17 09:57:57;;;;;;;;;6.50;3.50;;;;;;;;6336478;22;45326;-85
2023/03/17 10:00:26;;;;;;;;;5.75;3.50;;;;;;;;6336849;22;46310;-84
2023/03/17 10:02:52;;;;;;;;;2.50;2.50;;;;;;;;6336217;22;45354;-85
2023/03/17 10:05:20;;;;;;;;;2.00;2.00;;;;;;;;6336014;22;45292;-85
2023/03/17 10:07:58;;;;;;;;;1.25;1.25;;;;;;;;6336591;22;45467;-84
2023/03/17 10:10:23;;;;;;;;;0.75;0.75;;;;;;;;6335284;22;48332;-85
2023/03/17 10:12:59;;;;;;;;;2.50;2.00;;;;;;;;6336593;22;45275;-83
2023/03/17 10:15:31;;;;;;;;;2.00;0.00;;;;;;;;6336466;22;45314;-82
2023/03/17 10:17:57;;;;;;;;;1.00;1.00;;;;;;;;6342600;22;45596;-83
2023/03/17 10:20:32;;;;;;;;;1.00;1.00;;;;;;;;6338856;22;45404;-83
2023/03/17 10:23:00;;;;;;;;;2.00;1.00;;;;;;;;6338275;22;45291;-84
2023/03/17 10:25:30;;;;;;;;;3.00;1.25;;;;;;;;6337994;22;45320;-83
2023/03/17 10:28:10;;;;;;;;;1.00;1.00;;;;;;;;6337411;22;45483;-83
2023/03/17 10:30:35;;;;;;;;;3.00;1.00;;;;;;;;6337805;22;45474;-83
2023/03/17 10:33:02;;;;;;;;;1.33;1.00;;;;;;;;6338811;22;45253;-82
2023/03/17 10:35:28;;;;;;;;;2.00;1.00;;;;;;;;6338383;22;45224;-84
2023/03/17 10:37:53;;;;;;;;;0.25;0.25;;;;;;;;6341647;22;45230;-84
2023/03/17 10:40:23;;;;;;;;;1.00;1.00;;;;;;;;6337222;22;45307;-83
2023/03/17 10:43:09;;;;;;;;;0.00;0.00;;;;;;;;6334659;22;45484;-82
2023/03/17 10:45:37;;;;;;;;;1.00;1.00;;;;;;;;6335385;22;45450;-82
2023/03/17 10:48:03;;;;;;;;;1.50;0.00;;;;;;;;6335805;22;45350;-83
2023/03/17 10:50:31;;;;;;;;;1.00;1.00;;;;;;;;6334328;22;45645;-83
2023/03/17 10:52:58;;;;;;;;;1.25;1.25;;;;;;;;6335402;22;45636;-83
2023/03/17 10:55:26;;;;;;;;;1.75;1.00;;;;;;;;6336033;22;45301;-82
2023/03/17 10:57:56;;;;;;;;;2.00;1.00;;;;;;;;6332743;22;45466;-81
2023/03/17 11:00:22;;;;;;;;;1.00;1.00;;;;;;;;6335483;22;46144;-81
2023/03/17 11:02:57;;;;;;;;;2.00;0.00;;;;;;;;6334783;22;45416;-82
2023/03/17 11:05:24;;;;;;;;;1.00;1.00;;;;;;;;6334698;22;45264;-81
2023/03/17 11:07:56;;;;;;;;;1.00;0.00;;;;;;;;6335198;22;45225;-80
2023/03/17 11:10:23;;;;;;;;;0.25;0.25;;;;;;;;6333421;22;48061;-83
2023/03/17 11:12:53;;;;;;;;;1.00;0.50;;;;;;;;6335516;22;45520;-86
2023/03/17 11:15:21;;;;;;;;;1.25;0.00;;;;;;;;6333741;22;45341;-87
2023/03/17 11:17:59;;;;;;;;;;;;;;;;;;;;;
2023/03/17 11:20:32;;;;;;;;;1.00;1.00;;;;;;;;6328373;22;75890;-82
2023/03/17 11:23:15;;;;;;;;;0.25;0.00;;;;;;;;6335291;22;45336;-80
2023/03/17 11:25:42;;;;;;;;;0.00;0.00;;;;;;;;6333650;22;45381;-83
2023/03/17 11:28:15;;;;;;;;;0.75;0.25;;;;;;;;6335127;22;45286;-83
2023/03/17 11:30:46;;;;;;;;;1.00;0.00;;;;;;;;6334642;22;46204;-83
2023/03/17 11:33:26;;;;;;;;;2.00;1.75;;;;;;;;6334606;22;45323;-81
2023/03/17 11:36:10;;;;;;;;;2.00;1.00;;;;;;;;6335272;22;45295;-83
2023/03/17 11:39:04;;;;;;;;;4.75;1.00;;;;;;;;6334876;22;45428;-80
2023/03/17 11:41:32;;;;;;;;;1.00;1.00;;;;;;;;6330522;22;46535;-83
2023/03/17 11:43:58;;;;;;;;;1.00;1.00;;;;;;;;6335180;22;45657;-81
2023/03/17 11:46:23;;;;;;;;;1.00;1.00;;;;;;;;6334333;22;45268;-81
2023/03/17 11:48:54;;;;;;;;;3.00;1.00;;;;;;;;6334627;22;45161;-82
2023/03/17 11:51:19;;;;;;;;;3.00;1.00;;;;;;;;6334609;22;46191;-79
2023/03/17 11:53:57;;;;;;;;;0.00;0.00;;;;;;;;6335331;22;45538;-80
2023/03/17 11:56:27;;;;;;;;;2.00;0.75;;;;;;;;6334707;22;45250;-80
2023/03/17 11:59:00;;;;;;;;;0.50;0.50;;;;;;;;6335605;22;45393;-80
2023/03/17 12:01:28;;;;;;;;;2.00;1.00;;;;;;;;6333925;22;45346;-79
2023/03/17 12:04:02;;;;;;;;;2.00;1.50;;;;;;;;6334905;22;45618;-79
2023/03/17 12:06:30;;;;;;;;;1.50;1.50;;;;;;;;6335501;22;45288;-80
2023/03/17 12:09:02;;;;;;;;;3.00;1.00;;;;;;;;6335196;22;45324;-80
2023/03/17 12:11:28;;;;;;;;;1.25;1.25;;;;;;;;6332751;22;47000;-81
2023/03/17 12:13:53;;;;;;;;;2.25;1.75;;;;;;;;6335091;22;45316;-79
2023/03/17 12:16:24;;;;;;;;;1.00;1.00;;;;;;;;6334587;22;45283;-80
2023/03/17 12:19:10;;;;;;;;;2.00;2.00;;;;;;;;6335005;22;45167;-80
2023/03/17 12:21:35;;;;;;;;;1.75;1.75;;;;;;;;6334665;22;45281;-79
2023/03/17 12:24:05;;;;;;;;;4.50;2.75;;;;;;;;6335286;22;45795;-82
2023/03/17 12:26:40;;;;;;;;;1.00;1.00;;;;;;;;6335011;22;45199;-80
2023/03/17 12:29:11;;;;;;;;;4.00;1.50;;;;;;;;6334980;22;45221;-80
2023/03/17 12:31:40;;;;;;;;;2.00;1.00;;;;;;;;6333410;22;46185;-80
2023/03/17 12:34:08;;;;;;;;;2.75;1.00;;;;;;;;6334634;22;45611;-81
2023/03/17 12:36:34;;;;;;;;;4.00;2.50;;;;;;;;6335058;22;45416;-80
2023/03/17 12:39:00;;;;;;;;;2.00;2.00;;;;;;;;6334758;22;45276;-82
2023/03/17 12:41:45;;;;;;;;;5.25;3.25;;;;;;;;6332474;22;46928;-79
2023/03/17 12:44:23;;;;;;;;;3.25;1.75;;;;;;;;6334505;22;45535;-81
2023/03/17 12:47:01;;;;;;;;;3.25;1.50;;;;;;;;6334614;22;45299;-79
2023/03/17 12:49:27;;;;;;;;;2.00;2.00;;;;;;;;6334500;22;45407;-80
2023/03/17 12:51:55;;;;;;;;;2.00;2.00;;;;;;;;6333374;22;46924;-78
2023/03/17 12:54:25;;;;;;;;;2.75;2.00;;;;;;;;6334501;22;45209;-79
2023/03/17 12:56:50;;;;;;;;;3.00;2.00;;;;;;;;6334614;22;45279;-81
2023/03/17 12:59:17;;;;;;;;;4.25;2.00;;;;;;;;6333596;22;45451;-79
2023/03/17 13:01:44;;;;;;;;;3.00;3.00;;;;;;;;6335350;22;47230;-80
2023/03/17 13:04:24;;;;;;;;;2.00;2.00;;;;;;;;6336213;22;45359;-80
2023/03/17 13:06:58;;;;;;;;;4.00;2.00;;;;;;;;6335093;22;45229;-81
2023/03/17 13:09:28;;;;;;;;;3.00;3.00;;;;;;;;6335220;22;45386;-80
2023/03/17 13:11:53;;;;;;;;;2.00;2.00;;;;;;;;6335636;22;45617;-80
2023/03/17 13:14:25;;;;;;;;;4.00;3.00;;;;;;;;6333634;22;45373;-86
2023/03/17 13:16:52;;;;;;;;;3.00;3.00;;;;;;;;6335960;22;45608;-86
2023/03/17 13:19:25;;;;;;;;;3.50;3.50;;;;;;;;6335327;22;45414;-81
2023/03/17 13:22:03;;;;;;;;;2.00;2.00;;;;;;;;6335141;22;45664;-80
2023/03/17 13:24:38;;;;;;;;;2.25;2.00;;;;;;;;6335810;22;45296;-80
2023/03/17 13:27:09;;;;;;;;;2.50;2.00;;;;;;;;6334030;22;45244;-82
2023/03/17 13:29:34;;;;;;;;;5.00;3.00;;;;;;;;6335044;22;45224;-79
2023/03/17 13:32:29;;;;;;;;;2.00;2.00;;;;;;;;6334460;22;47139;-81
2023/03/17 13:35:01;;;;;;;;;4.50;2.25;;;;;;;;6335806;22;45364;-82
2023/03/17 13:37:32;;;;;;;;;2.00;1.00;;;;;;;;6333979;22;45344;-84
2023/03/17 13:40:18;;;;;;;;;3.25;2.00;;;;;;;;6335612;22;45464;-83
2023/03/17 13:43:02;;;;;;;;;3.25;2.50;;;;;;;;6334437;22;46204;-82
2023/03/17 13:45:42;;;;;;;;;4.00;2.00;;;;;;;;6334926;22;45615;-83
2023/03/17 13:48:46;;;;;;;;;6.25;3.00;;;;;;;;6335759;22;45392;-88
2023/03/17 13:51:38;;;;;;;;;5.25;1.75;;;;;;;;6208312;22;45432;-81
2023/03/17 13:54:18;;;;;;;;;4.00;2.00;;;;;;;;6203066;22;46251;-80
2023/03/17 13:56:44;;;;;;;;;5.25;4.00;;;;;;;;6182946;22;45458;-78
2023/03/17 13:59:09;;;;;;;;;2.00;2.00;;;;;;;;6208294;22;45362;-78
2023/03/17 14:01:45;;;;;;;;;2.33;2.00;;;;;;;;6208155;22;45489;-80
2023/03/17 14:04:15;;;;;;;;;4.00;4.00;;;;;;;;6206326;22;46011;-79
2023/03/17 14:06:40;;;;;;;;;2.50;2.50;;;;;;;;6204449;22;45869;-77
2023/03/17 14:09:08;;;;;;;;;3.25;3.25;;;;;;;;6208495;22;45503;-79
2023/03/17 14:11:39;;;;;;;;;6.50;3.50;;;;;;;;6208068;22;45641;-81
2023/03/17 14:14:36;;;;;;;;;5.50;2.00;;;;;;;;6208151;22;46648;-81
2023/03/17 14:17:20;;;;;;;;;6.00;3.75;;;;;;;;6118919;23;45859;-83
2023/03/17 14:19:58;;;;;;;;;4.50;1.00;;;;;;;;6118843;23;45369;-80
2023/03/17 14:22:24;;;;;;;;;3.00;3.00;;;;;;;;6179470;22;45331;-81
2023/03/17 14:24:50;;;;;;;;;4.25;4.00;;;;;;;;6208322;22;45406;-81
2023/03/17 14:27:15;;;;;;;;;7.50;4.00;;;;;;;;6207785;22;45351;-82
2023/03/17 14:29:41;;;;;;;;;5.50;4.00;;;;;;;;6208002;22;45294;-81
2023/03/17 14:32:11;;;;;;;;;4.33;3.00;;;;;;;;6208313;22;45250;-82
2023/03/17 14:34:43;;;;;;;;;4.25;3.75;;;;;;;;6207788;22;46548;-80
2023/03/17 14:37:11;;;;;;;;;7.25;4.75;;;;;;;;6208603;22;45707;-81
2023/03/17 14:39:42;;;;;;;;;3.50;3.50;;;;;;;;6208409;22;45354;-80
2023/03/17 14:42:07;;;;;;;;;4.50;3.25;;;;;;;;6207829;22;45404;-81
2023/03/17 14:44:40;;;;;;;;;6.00;5.00;;;;;;;;6207633;22;46676;-81